Time;durP1;ratioP1;P1;durP2;ratioP2;P2;SDS_P1;SDS_P2;PMS_P1;PMS_P2;Temp;Humidity;BMP_temperature;BMP_pressure;BME280_temperature;BME280_humidity;BME280_pressure;Samples;Min_cycle;Max_cycle;Signal;HPM_P1;HPM_P2
2021/05/21 00:02:33;;;;;;;2.37;1.23;;;;;;;9.98;68.45;96125.94;4985399;28;20042;-77
2021/05/21 00:04:59;;;;;;;;;;;;;;;9.95;68.84;96136.75;4970558;28;20040;-76
2021/05/21 00:07:25;;;;;;;3.10;1.13;;;;;;;9.93;68.99;96132.66;4980253;28;19996;-76
2021/05/21 00:09:50;;;;;;;3.87;1.40;;;;;;;9.93;68.45;96122.97;4980315;28;20035;-77
2021/05/21 00:12:16;;;;;;;2.63;1.23;;;;;;;9.89;68.62;96121.63;4981009;28;20038;-76
2021/05/21 00:14:42;;;;;;;3.23;1.30;;;;;;;9.84;69.06;96113.41;4970278;28;20030;-76
2021/05/21 00:17:07;;;;;;;2.30;1.03;;;;;;;9.87;69.14;96121.81;4982201;28;20041;-76
2021/05/21 00:19:33;;;;;;;2.67;1.27;;;;;;;9.80;69.07;96107.66;4970542;28;20039;-76
2021/05/21 00:21:59;;;;;;;2.67;0.90;;;;;;;9.74;69.73;96107.47;4988634;28;20053;-76
2021/05/21 00:24:24;;;;;;;3.10;1.27;;;;;;;9.63;70.06;96100.69;4985307;28;20042;-76
2021/05/21 00:26:51;;;;;;;2.50;1.10;;;;;;;9.64;70.24;96102.31;4968991;28;20029;-76
2021/05/21 00:29:17;;;;;;;4.73;1.03;;;;;;;9.61;70.21;96098.19;4972579;28;20026;-76
2021/05/21 00:31:43;;;;;;;4.70;1.00;;;;;;;9.56;70.18;96100.50;4972578;28;20022;-76
2021/05/21 00:34:10;;;;;;;4.97;1.30;;;;;;;9.59;69.81;96113.31;4988876;28;20800;-76
2021/05/21 00:36:36;;;;;;;2.60;1.20;;;;;;;9.60;69.63;96106.25;4996672;28;20030;-76
2021/05/21 00:39:03;;;;;;;2.43;0.87;;;;;;;9.51;70.07;96096.69;4982037;28;20089;-76
2021/05/21 00:41:29;;;;;;;3.83;1.40;;;;;;;9.40;70.15;96089.91;4985150;28;20443;-76
2021/05/21 00:43:56;;;;;;;3.50;1.40;;;;;;;9.37;70.38;96082.31;4975992;28;20034;-77
2021/05/21 00:46:22;;;;;;;4.20;1.17;;;;;;;9.44;70.68;96088.59;4973394;28;20042;-76
2021/05/21 00:48:51;;;;;;;3.50;1.30;;;;;;;9.45;70.59;96084.97;4991428;28;20026;-76
2021/05/21 00:51:17;;;;;;;2.93;1.20;;;;;;;9.34;70.87;96074.75;4972396;28;20034;-76
2021/05/21 00:53:45;;;;;;;1.77;1.00;;;;;;;9.27;71.23;96068.50;4977731;28;20035;-77
2021/05/21 00:56:11;;;;;;;3.33;1.33;;;;;;;9.28;71.42;96065.69;4992571;28;20077;-77
2021/05/21 00:58:38;;;;;;;2.70;1.73;;;;;;;9.25;71.51;96052.06;4991411;28;20562;-77
2021/05/21 01:01:05;;;;;;;3.07;1.30;;;;;;;9.30;71.29;96055.06;4990403;28;20716;-76
2021/05/21 01:03:31;;;;;;;2.50;0.90;;;;;;;9.29;71.09;96056.03;4982378;28;20033;-77
2021/05/21 01:05:57;;;;;;;4.10;1.20;;;;;;;9.34;70.89;96054.59;5000805;28;20441;-76
2021/05/21 01:08:26;;;;;;;3.00;1.13;;;;;;;9.39;70.56;96046.25;4974977;28;20101;-76
2021/05/21 01:10:52;;;;;;;3.57;1.37;;;;;;;9.50;70.35;96037.28;4994533;28;20035;-76
2021/05/21 01:13:20;;;;;;;3.27;1.00;;;;;;;9.49;69.80;96025.13;4986951;28;20126;-76
2021/05/21 01:15:46;;;;;;;2.17;1.00;;;;;;;9.55;69.48;96021.88;4991864;28;20066;-77
2021/05/21 01:18:14;;;;;;;2.77;0.80;;;;;;;9.58;69.20;96022.38;4981041;28;20120;-76
2021/05/21 01:20:40;;;;;;;1.60;0.90;;;;;;;9.55;69.10;96024.50;5006484;28;20392;-76
2021/05/21 01:23:09;;;;;;;3.97;1.00;;;;;;;9.56;69.30;96029.59;4973943;28;20037;-76
2021/05/21 01:25:37;;;;;;;2.90;1.13;;;;;;;9.58;69.30;96035.50;4975975;28;20463;-78
2021/05/21 01:28:04;;;;;;;1.90;0.90;;;;;;;9.58;69.35;96030.25;4968610;28;20392;-76
2021/05/21 01:30:30;;;;;;;2.53;0.90;;;;;;;9.54;69.36;96034.19;4991022;28;20100;-76
2021/05/21 01:33:22;;;;;;;2.40;0.70;;;;;;;9.63;68.58;96017.50;4991275;28;20030;-76
2021/05/21 01:35:47;;;;;;;1.70;0.70;;;;;;;9.62;68.98;95986.97;4968498;28;20067;-76
2021/05/21 01:38:13;;;;;;;1.63;0.90;;;;;;;9.58;68.68;95985.63;4983303;28;20092;-76
2021/05/21 01:40:43;;;;;;;1.47;1.00;;;;;;;9.71;68.50;95993.06;4974685;28;20038;-76
2021/05/21 01:43:09;;;;;;;1.50;0.80;;;;;;;9.78;68.19;95998.50;4971693;28;20027;-76
2021/05/21 01:45:37;;;;;;;1.70;0.80;;;;;;;9.78;67.71;95998.50;4987408;28;20129;-76
2021/05/21 01:48:03;;;;;;;1.73;0.87;;;;;;;9.76;67.97;95990.78;5002909;28;20035;-76
2021/05/21 01:50:42;;;;;;;3.87;1.00;;;;;;;9.75;68.39;95993.56;4990981;28;20400;-76
2021/05/21 01:53:08;;;;;;;1.70;0.83;;;;;;;9.77;68.15;95983.72;4974941;28;20088;-76
2021/05/21 01:55:57;;;;;;;3.63;1.10;;;;;;;9.81;67.95;95993.72;4989184;28;20041;-76
2021/05/21 01:58:24;;;;;;;1.73;0.80;;;;;;;9.79;68.13;95984.38;4987428;28;20042;-76
2021/05/21 02:00:50;;;;;;;1.70;0.80;;;;;;;9.79;68.23;96000.13;4986932;28;20030;-77
2021/05/21 02:03:16;;;;;;;1.60;1.10;;;;;;;9.78;68.44;95987.97;4986827;28;20548;-76
2021/05/21 02:05:48;;;;;;;1.97;0.80;;;;;;;9.75;68.20;95977.78;4970999;28;20033;-76
2021/05/21 02:08:14;;;;;;;3.38;0.88;;;;;;;9.82;67.83;95974.34;5005931;28;20103;-76
2021/05/21 02:10:41;;;;;;;3.93;1.03;;;;;;;9.79;68.24;95984.38;4986863;28;20677;-76
2021/05/21 02:13:15;;;;;;;2.63;1.10;;;;;;;9.79;68.20;95984.38;4992347;28;20041;-75
2021/05/21 02:15:41;;;;;;;1.90;0.80;;;;;;;9.78;68.41;95983.56;4987156;28;20113;-76
2021/05/21 02:18:06;;;;;;;1.67;0.80;;;;;;;9.78;68.21;95980.91;5007557;28;20027;-76
2021/05/21 02:20:32;;;;;;;1.87;0.97;;;;;;;9.72;68.56;95976.31;4991618;28;20449;-76
2021/05/21 02:22:58;;;;;;;1.90;1.07;;;;;;;9.69;68.73;95963.50;4985504;28;20026;-76
2021/05/21 02:25:24;;;;;;;3.13;1.50;;;;;;;9.65;69.17;95978.75;4988304;28;20034;-76
2021/05/21 02:27:51;;;;;;;2.70;0.87;;;;;;;9.67;69.36;95960.22;4978134;28;20018;-76
2021/05/21 02:30:17;;;;;;;1.77;0.87;;;;;;;9.57;69.23;95959.53;4975565;28;20046;-76
2021/05/21 02:32:43;;;;;;;1.93;0.80;;;;;;;9.56;69.42;95948.22;4992742;28;20030;-76
2021/05/21 02:35:10;;;;;;;1.40;0.87;;;;;;;9.49;70.07;95946.38;4976030;28;20475;-76
2021/05/21 02:37:36;;;;;;;2.83;1.00;;;;;;;9.47;70.12;95945.72;4975166;28;20030;-76
2021/05/21 02:40:05;;;;;;;3.90;0.90;;;;;;;9.39;70.13;95939.47;4988341;28;20507;-76
2021/05/21 02:42:38;;;;;;;1.50;0.77;;;;;;;9.41;69.80;95944.56;4971561;28;20433;-76
2021/05/21 02:45:05;;;;;;;1.60;0.60;;;;;;;9.48;70.01;95939.50;4989148;28;20125;-76
2021/05/21 02:47:34;;;;;;;1.00;0.67;;;;;;;9.51;69.57;95937.38;5003028;28;20026;-77
2021/05/21 02:50:01;;;;;;;3.97;1.03;;;;;;;9.48;69.78;95942.13;4976183;28;20136;-76
2021/05/21 02:52:27;;;;;;;1.50;0.80;;;;;;;9.45;69.95;95936.19;4976583;28;20037;-76
2021/05/21 02:54:54;;;;;;;2.00;0.80;;;;;;;9.45;69.69;95930.13;4972405;28;20031;-77
2021/05/21 02:57:26;;;;;;;1.70;0.80;;;;;;;9.45;69.62;95922.25;5005918;28;20027;-77
2021/05/21 02:59:53;;;;;;;1.03;0.73;;;;;;;9.45;69.44;95922.25;4991141;28;20038;-76
2021/05/21 03:02:20;;;;;;;1.30;0.80;;;;;;;9.43;69.63;95924.22;4985670;28;20033;-76
2021/05/21 03:04:45;;;;;;;0.83;0.60;;;;;;;9.37;69.91;95917.00;4965648;28;20039;-77
2021/05/21 03:07:11;;;;;;;1.17;0.80;;;;;;;9.40;69.62;95911.44;4988129;28;20396;-76
2021/05/21 03:09:37;;;;;;;1.57;0.80;;;;;;;9.37;69.66;95917.81;4972709;28;20030;-76
2021/05/21 03:12:03;;;;;;;2.80;1.20;;;;;;;9.37;70.18;95915.19;4973538;28;20106;-77
2021/05/21 03:14:38;;;;;;;2.77;0.80;;;;;;;9.41;69.40;95903.38;4988203;28;20034;-77
2021/05/21 03:17:04;;;;;;;1.60;0.80;;;;;;;9.37;69.68;95909.13;4982319;28;20038;-77
2021/05/21 03:19:35;;;;;;;1.03;0.70;;;;;;;9.36;69.82;95902.22;4973144;28;20381;-76
2021/05/21 03:22:01;;;;;;;3.20;0.90;;;;;;;9.32;69.80;95904.34;4973257;28;20107;-77
2021/05/21 03:24:27;;;;;;;1.53;0.70;;;;;;;9.26;70.03;95909.41;4970719;28;20508;-77
2021/05/21 03:26:52;;;;;;;0.80;0.67;;;;;;;9.25;70.10;95903.31;4988642;28;20072;-77
2021/05/21 03:29:18;;;;;;;1.77;0.80;;;;;;;9.23;70.53;95897.44;4971279;28;20037;-77
2021/05/21 03:31:45;;;;;;;1.80;0.70;;;;;;;9.29;69.95;95909.06;4986701;28;20080;-76
2021/05/21 03:34:11;;;;;;;1.40;0.83;;;;;;;9.25;70.25;95902.50;4980720;28;20093;-77
2021/05/21 03:36:37;;;;;;;1.57;0.87;;;;;;;9.21;70.24;95902.81;4972779;28;20045;-77
2021/05/21 03:39:08;;;;;;;1.47;0.63;;;;;;;9.22;70.19;95893.16;4981615;28;20385;-77
2021/05/21 03:41:34;;;;;;;4.20;0.70;;;;;;;9.26;70.50;95884.00;4989099;28;20045;-77
2021/05/21 03:44:07;;;;;;;2.13;0.73;;;;;;;9.24;69.88;95885.13;4980495;28;20481;-76
2021/05/21 03:46:34;;;;;;;2.47;0.73;;;;;;;9.25;70.13;95878.91;4972487;28;20064;-77
2021/05/21 03:49:02;;;;;;;1.30;0.60;;;;;;;9.29;69.72;95878.44;4985874;28;20570;-77
2021/05/21 03:51:28;;;;;;;1.87;0.80;;;;;;;9.25;69.77;95884.13;4969867;28;20409;-76
2021/05/21 03:53:55;;;;;;;1.27;0.60;;;;;;;9.20;70.01;95871.50;4970173;28;20034;-76
2021/05/21 03:56:21;;;;;;;2.00;0.60;;;;;;;9.23;70.05;95875.63;4995539;28;20046;-76
2021/05/21 03:58:47;;;;;;;1.93;1.17;;;;;;;9.28;69.28;95870.72;4981237;28;20031;-77
2021/05/21 04:01:16;;;;;;;2.93;0.70;;;;;;;9.34;69.22;95870.88;4972552;28;20041;-77
2021/05/21 04:03:42;;;;;;;2.60;0.80;;;;;;;9.36;69.08;95868.13;4970859;28;20454;-76
2021/05/21 04:06:07;;;;;;;4.73;1.00;;;;;;;9.34;69.08;95870.06;4988905;28;20053;-76
2021/05/21 04:08:34;;;;;;;2.70;1.23;;;;;;;9.33;69.27;95866.63;4988087;28;20030;-77
2021/05/21 04:11:13;;;;;;;3.03;1.00;;;;;;;9.36;69.03;95868.13;4988015;28;20035;-76
2021/05/21 04:13:40;;;;;;;3.23;1.00;;;;;;;9.40;69.01;95870.25;4984951;28;20802;-76
2021/05/21 04:16:13;;;;;;;4.67;1.77;;;;;;;9.36;68.95;95868.13;4988072;28;20738;-76
2021/05/21 04:18:38;;;;;;;2.50;1.20;;;;;;;9.40;68.92;95864.19;4985908;28;20042;-76
2021/05/21 04:21:18;;;;;;;1.93;0.90;;;;;;;9.39;68.94;95865.19;4980533;28;20038;-76
2021/05/21 04:23:57;;;;;;;0.50;0.50;;;;;;;9.49;68.32;95865.00;5092970;27;21001;-74
2021/05/21 04:26:30;;;;;;;1.70;0.73;;;;;;;9.58;68.29;95864.03;5067808;28;20123;-75
2021/05/21 04:28:56;;;;;;;0.98;0.50;;;;;;;9.53;68.41;95864.53;5074283;28;20047;-75
2021/05/21 04:31:21;;;;;;;1.87;0.63;;;;;;;9.53;68.38;95855.84;5073465;28;20394;-74
2021/05/21 04:33:50;;;;;;;2.70;0.93;;;;;;;9.57;68.57;95854.53;5072225;28;20032;-75
2021/05/21 04:36:17;;;;;;;1.83;0.80;;;;;;;9.60;68.53;95854.22;5095753;28;20082;-74
2021/05/21 04:38:43;;;;;;;3.17;1.00;;;;;;;9.56;68.54;95845.03;5090130;28;20040;-74
2021/05/21 04:41:12;;;;;;;2.43;0.80;;;;;;;9.63;68.48;95840.75;5091478;28;20044;-75
2021/05/21 04:43:37;;;;;;;3.07;0.90;;;;;;;9.65;68.44;95836.97;5087671;28;20037;-76
2021/05/21 04:46:06;;;;;;;3.50;0.70;;;;;;;9.64;68.87;95840.59;5067770;28;20051;-75
2021/05/21 04:48:34;;;;;;;1.93;0.70;;;;;;;9.70;68.93;95827.81;5067318;28;20094;-75
2021/05/21 04:50:59;;;;;;;1.77;0.70;;;;;;;9.70;68.73;95823.38;5077525;28;20035;-75
2021/05/21 04:53:29;;;;;;;2.67;0.80;;;;;;;9.68;68.79;95825.31;5091733;28;20497;-75
2021/05/21 04:56:01;;;;;;;2.90;0.77;;;;;;;9.80;67.95;95833.72;5068906;28;20169;-75
2021/05/21 04:58:29;;;;;;;2.47;0.80;;;;;;;9.76;68.05;95827.13;5068044;28;20071;-75
2021/05/21 05:00:55;;;;;;;2.40;0.90;;;;;;;9.87;67.72;95832.06;5071265;28;20025;-75
2021/05/21 05:03:22;;;;;;;1.93;0.90;;;;;;;9.92;67.79;95832.38;5090808;28;20052;-75
2021/05/21 05:05:52;;;;;;;4.10;0.97;;;;;;;9.97;67.66;95830.09;5058929;28;20100;-74
2021/05/21 05:08:18;;;;;;;1.90;0.87;;;;;;;9.98;68.12;95828.28;5069983;28;20036;-74
2021/05/21 05:10:44;;;;;;;2.53;0.70;;;;;;;10.09;67.55;95827.94;5071460;28;20482;-75
2021/05/21 05:13:10;;;;;;;2.77;0.93;;;;;;;10.11;67.68;95818.91;5078846;28;20036;-75
2021/05/21 05:15:38;;;;;;;1.90;0.70;;;;;;;10.14;67.64;95817.75;5083535;28;20032;-74
2021/05/21 05:18:05;;;;;;;2.43;1.00;;;;;;;10.22;67.65;95822.16;5072438;28;20040;-74
2021/05/21 05:20:31;;;;;;;2.37;0.93;;;;;;;10.38;67.79;95811.66;5093596;28;20024;-74
2021/05/21 05:22:57;;;;;;;2.10;0.80;;;;;;;10.33;67.75;95809.56;5076464;28;20032;-74
2021/05/21 05:25:26;;;;;;;1.70;0.70;;;;;;;10.31;67.36;95801.00;5089858;28;20537;-75
2021/05/21 05:27:53;;;;;;;3.37;0.90;;;;;;;10.43;66.89;95796.22;5082432;28;20055;-74
2021/05/21 05:30:19;;;;;;;1.70;0.90;;;;;;;10.43;67.49;95798.84;5073836;28;20034;-75
2021/05/21 05:32:45;;;;;;;2.23;1.10;;;;;;;10.52;67.52;95799.63;5083962;28;20016;-75
2021/05/21 05:35:11;;;;;;;1.93;1.30;;;;;;;10.56;67.58;95793.03;5081160;28;20444;-75
2021/05/21 05:37:37;;;;;;;2.27;0.80;;;;;;;10.71;66.96;95787.91;5082521;28;20078;-75
2021/05/21 05:40:05;;;;;;;5.80;0.80;;;;;;;10.79;66.54;95788.66;5057300;28;20019;-75
2021/05/21 05:42:31;;;;;;;2.80;0.80;;;;;;;10.91;66.27;95783.03;5057248;28;20547;-75
2021/05/21 05:44:56;;;;;;;5.30;1.00;;;;;;;10.95;66.71;95777.25;5080135;28;20050;-75
2021/05/21 05:47:32;;;;;;;2.60;0.80;;;;;;;11.05;66.31;95772.59;5061552;28;20035;-75
2021/05/21 05:49:58;;;;;;;3.03;1.10;;;;;;;11.08;66.47;95774.06;5072025;28;20110;-75
2021/05/21 05:52:24;;;;;;;1.97;0.90;;;;;;;11.13;66.21;95776.97;5076441;28;20541;-76
2021/05/21 05:54:49;;;;;;;3.43;0.80;;;;;;;11.22;65.80;95781.19;5077138;28;20862;-75
2021/05/21 05:57:16;;;;;;;2.87;0.73;;;;;;;11.31;65.53;95776.72;5069309;28;20070;-75
2021/05/21 05:59:45;;;;;;;1.60;0.80;;;;;;;11.41;65.63;95766.78;5061324;28;20038;-75
2021/05/21 06:02:11;;;;;;;2.70;1.17;;;;;;;11.40;66.07;95767.78;5075327;28;20034;-75
2021/05/21 06:04:36;;;;;;;2.67;1.13;;;;;;;11.42;65.78;95760.50;5075849;28;20041;-75
2021/05/21 06:07:02;;;;;;;3.13;1.10;;;;;;;11.60;64.35;95767.28;5053461;28;20042;-75
2021/05/21 06:09:37;;;;;;;2.57;0.83;;;;;;;11.79;63.53;95764.97;5076081;28;20043;-75
2021/05/21 06:12:03;;;;;;;4.23;0.63;;;;;;;11.87;63.78;95763.28;5062428;28;20494;-75
2021/05/21 06:14:29;;;;;;;2.40;0.80;;;;;;;12.01;63.22;95757.25;5078058;28;20107;-74
2021/05/21 06:16:57;;;;;;;1.23;0.87;;;;;;;12.18;63.18;95757.91;5059288;28;20405;-75
2021/05/21 06:19:24;;;;;;;7.27;1.00;;;;;;;12.24;62.58;95751.91;5059367;28;20492;-75
2021/05/21 06:21:49;;;;;;;2.53;1.20;;;;;;;12.34;62.19;95751.63;5077338;28;20031;-75
2021/05/21 06:24:16;;;;;;;3.93;1.30;;;;;;;12.49;61.62;95747.97;5077993;28;20103;-74
2021/05/21 06:29:41;;;;;;;2.27;0.80;;;;;;;12.49;60.82;95740.06;5030590;28;20043;-75
2021/05/21 06:32:23;;;;;;;2.00;0.90;;;;;;;12.75;60.55;95728.22;5067391;28;20017;-76
2021/05/21 06:35:03;;;;;;;3.23;0.97;;;;;;;12.81;60.42;95730.13;5077096;28;20683;-76
2021/05/21 06:37:29;;;;;;;3.03;0.93;;;;;;;12.80;60.74;95725.03;5074222;28;20036;-76
2021/05/21 06:39:55;;;;;;;3.37;1.10;;;;;;;12.84;60.65;95727.09;5058439;28;20058;-77
2021/05/21 06:42:21;;;;;;;1.67;0.80;;;;;;;12.82;60.49;95715.94;5056398;28;20052;-76
2021/05/21 06:44:49;;;;;;;1.87;0.70;;;;;;;12.82;60.87;95720.38;5076372;28;20032;-76
2021/05/21 06:47:15;;;;;;;2.40;1.03;;;;;;;12.93;60.34;95707.50;5056791;28;20039;-77
2021/05/21 06:49:40;;;;;;;5.27;1.43;;;;;;;12.89;60.56;95714.16;5057640;28;20024;-76
2021/05/21 06:52:06;;;;;;;4.53;1.20;;;;;;;12.94;59.97;95706.53;5078042;28;20028;-76
2021/05/21 06:54:32;;;;;;;2.93;1.03;;;;;;;13.01;60.02;95716.31;5054121;28;20703;-76
2021/05/21 06:56:58;;;;;;;3.87;1.17;;;;;;;13.13;59.69;95714.81;5064357;28;20036;-76
2021/05/21 06:59:24;;;;;;;2.20;1.03;;;;;;;13.23;59.06;95710.06;5049376;28;20067;-76
2021/05/21 07:01:50;;;;;;;3.60;1.40;;;;;;;13.25;59.78;95713.38;5075965;28;20620;-76
2021/05/21 07:04:25;;;;;;;2.90;0.80;;;;;;;13.15;59.44;95710.19;5063786;28;20077;-76
2021/05/21 07:06:55;;;;;;;2.23;0.73;;;;;;;13.27;59.62;95711.34;5058394;28;20094;-75
2021/05/21 07:09:21;;;;;;;2.30;0.63;;;;;;;13.23;58.88;95703.97;5084470;28;20033;-76
2021/05/21 07:11:46;;;;;;;2.17;0.73;;;;;;;13.23;59.05;95712.69;5053155;28;20055;-78
2021/05/21 07:14:25;;;;;;;3.63;0.70;;;;;;;13.25;59.18;95710.72;5074051;28;20032;-76
2021/05/21 07:16:55;;;;;;;2.57;0.80;;;;;;;13.32;59.20;95702.88;5055930;28;20120;-76
2021/05/21 07:19:24;;;;;;;4.87;1.10;;;;;;;13.54;58.62;95706.28;5081820;28;20036;-77
2021/05/21 07:21:49;;;;;;;2.93;1.20;;;;;;;13.49;59.08;95706.88;5076766;28;20160;-76
2021/05/21 07:24:22;;;;;;;1.80;0.70;;;;;;;13.41;59.49;95707.84;5064467;28;20127;-76
2021/05/21 07:26:48;;;;;;;4.40;1.70;;;;;;;13.59;59.26;95698.63;5073187;28;20093;-76
2021/05/21 07:29:16;;;;;;;1.47;0.80;;;;;;;13.64;59.59;95696.22;5075304;28;20020;-77
2021/05/21 07:31:41;;;;;;;5.03;1.17;;;;;;;13.78;59.42;95691.84;5051223;28;20065;-76
2021/05/21 07:34:07;;;;;;;3.03;0.80;;;;;;;14.08;59.01;95692.44;5045151;28;20135;-76
2021/05/21 07:36:35;;;;;;;1.50;0.60;;;;;;;14.55;57.52;95682.94;5056768;28;20039;-76
2021/05/21 07:39:03;;;;;;;2.90;0.80;;;;;;;14.50;54.48;95685.38;5056245;28;20028;-77
2021/05/21 07:41:31;;;;;;;2.07;0.60;;;;;;;14.47;53.33;95680.47;5057647;28;20032;-76
2021/05/21 07:43:57;;;;;;;4.13;0.87;;;;;;;14.66;53.20;95695.63;5062370;28;20020;-77
2021/05/21 07:46:25;;;;;;;2.33;0.60;;;;;;;14.54;51.54;95697.22;5068679;28;20040;-76
2021/05/21 07:48:50;;;;;;;3.37;0.60;;;;;;;14.57;51.80;95699.47;5072118;28;20107;-77
2021/05/21 07:51:20;;;;;;;1.60;0.73;;;;;;;14.64;52.85;95691.56;5077982;28;20024;-76
2021/05/21 07:53:46;;;;;;;1.33;0.73;;;;;;;14.62;51.54;95694.41;5073660;28;20583;-76
2021/05/21 07:56:19;;;;;;;1.17;0.40;;;;;;;14.63;51.85;95693.38;5063332;28;20468;-77
2021/05/21 07:58:49;;;;;;;2.77;1.07;;;;;;;14.73;52.07;95693.03;5071083;28;20035;-76
2021/05/21 08:01:25;;;;;;;3.23;0.77;;;;;;;14.60;53.00;95685.84;5067945;28;20490;-77
2021/05/21 08:03:51;;;;;;;5.77;1.30;;;;;;;14.62;52.66;95694.41;5079063;28;20561;-76
2021/05/21 08:06:20;;;;;;;3.17;0.70;;;;;;;14.43;53.08;95697.75;5075243;28;20170;-77
2021/05/21 08:08:47;;;;;;;0.97;0.60;;;;;;;14.36;51.45;95695.88;5045507;28;20024;-77
2021/05/21 08:11:13;;;;;;;7.43;0.90;;;;;;;14.34;52.94;95699.72;5053063;28;20043;-76
2021/05/21 08:13:39;;;;;;;2.30;0.60;;;;;;;14.47;52.98;95701.63;5047742;28;20031;-76
2021/05/21 08:16:10;;;;;;;3.57;0.50;;;;;;;14.34;52.92;95697.88;5071141;28;20012;-76
2021/05/21 08:18:37;;;;;;;3.70;0.50;;;;;;;14.32;51.43;95694.66;5058378;28;20509;-75
2021/05/21 08:21:03;;;;;;;3.50;0.60;;;;;;;14.35;51.92;95694.25;5075973;28;20020;-76
2021/05/21 08:23:29;;;;;;;1.50;0.50;;;;;;;14.47;52.04;95693.69;5056942;28;20489;-76
2021/05/21 08:25:56;;;;;;;1.13;0.50;;;;;;;14.51;51.42;95685.19;5057894;28;20039;-76
2021/05/21 08:28:22;;;;;;;2.07;0.70;;;;;;;14.52;52.79;95678.91;5069533;28;20033;-76
2021/05/21 08:30:52;;;;;;;3.97;0.70;;;;;;;14.56;51.41;95680.13;5074547;28;20552;-76
2021/05/21 08:33:19;;;;;;;2.60;0.90;;;;;;;14.56;52.08;95677.47;5071038;28;20111;-76
2021/05/21 08:35:45;;;;;;;2.47;1.07;;;;;;;14.67;51.87;95668.16;5052059;28;20063;-76
2021/05/21 08:38:10;;;;;;;2.13;0.50;;;;;;;14.62;50.92;95667.94;5066124;28;20055;-76
2021/05/21 08:40:38;;;;;;;1.77;0.70;;;;;;;14.58;50.72;95656.91;5053616;28;20489;-76
2021/05/21 08:43:09;;;;;;;0.90;0.37;;;;;;;14.66;51.60;95663.06;5072584;28;20081;-76
2021/05/21 08:45:35;;;;;;;4.70;0.93;;;;;;;14.70;51.18;95651.06;5070599;28;20028;-76
2021/05/21 08:48:03;;;;;;;4.80;0.83;;;;;;;14.72;51.79;95655.16;5066457;28;20031;-77
2021/05/21 08:50:30;;;;;;;1.00;0.50;;;;;;;14.79;51.28;95647.22;5057548;28;20794;-76
2021/05/21 08:52:56;;;;;;;7.30;1.90;;;;;;;14.68;51.81;95648.59;5057539;28;20055;-76
2021/05/21 08:55:24;;;;;;;4.30;1.10;;;;;;;14.83;51.79;95645.81;5077688;28;20181;-76
2021/05/21 08:57:50;;;;;;;5.53;0.87;;;;;;;15.03;51.50;95641.38;5068290;28;20032;-77
2021/05/21 09:00:17;;;;;;;3.37;0.80;;;;;;;15.12;50.83;95636.69;5074535;28;20071;-75
2021/05/21 09:02:43;;;;;;;3.90;0.67;;;;;;;15.05;50.45;95633.22;5086988;28;20025;-75
2021/05/21 09:05:19;;;;;;;1.80;0.53;;;;;;;15.04;49.72;95628.94;5056391;28;20036;-76
2021/05/21 09:07:57;;;;;;;2.47;0.73;;;;;;;15.04;50.73;95635.03;5070421;28;20119;-76
2021/05/21 09:10:24;;;;;;;1.77;0.60;;;;;;;15.08;50.56;95630.16;5065974;28;20029;-75
2021/05/21 09:12:52;;;;;;;3.60;0.60;;;;;;;15.10;49.95;95644.03;5054530;28;20020;-76
2021/05/21 09:15:20;;;;;;;2.27;0.70;;;;;;;15.04;49.70;95647.47;5073481;28;20841;-76
2021/05/21 09:18:08;;;;;;;3.07;0.90;;;;;;;15.01;50.28;95655.81;5061623;28;20013;-75
2021/05/21 09:20:41;;;;;;;1.27;0.70;;;;;;;14.91;50.44;95650.91;5077825;28;20032;-76
2021/05/21 09:23:10;;;;;;;1.13;0.60;;;;;;;14.93;51.20;95666.59;5076233;28;20095;-77
2021/05/21 09:25:51;;;;;;;1.97;0.70;;;;;;;14.81;51.11;95656.59;5073739;28;20024;-76
2021/05/21 09:28:49;;;;;;;4.77;0.63;;;;;;;14.80;51.85;95659.44;5072166;28;20452;-76
2021/05/21 09:31:22;;;;;;;1.70;0.70;;;;;;;14.72;52.82;95659.59;5058533;28;20077;-76
2021/05/21 09:33:59;;;;;;;2.92;0.70;;;;;;;14.74;52.09;95663.69;5058043;28;20032;-76
2021/05/21 09:36:33;;;;;;;2.83;1.30;;;;;;;14.75;52.32;95664.50;5065968;28;20032;-77
2021/05/21 09:39:04;;;;;;;3.67;1.17;;;;;;;14.58;53.37;95664.03;5070526;28;20036;-77
2021/05/21 09:41:30;;;;;;;3.50;0.60;;;;;;;14.58;53.05;95669.34;5067913;28;20037;-76
2021/05/21 09:43:59;;;;;;;2.27;0.67;;;;;;;14.57;53.03;95670.34;5055758;28;20027;-77
2021/05/21 09:46:40;;;;;;;2.40;0.83;;;;;;;14.56;53.80;95676.66;5053890;28;20131;-77
2021/05/21 09:49:33;;;;;;;2.20;0.70;;;;;;;14.50;53.35;95678.25;5048867;28;20513;-77
2021/05/21 09:52:03;;;;;;;7.85;2.80;;;;;;;14.47;52.48;95680.47;5073071;28;20096;-77
2021/05/21 09:55:00;;;;;;;4.47;1.27;;;;;;;14.38;52.86;95696.50;5066105;28;20037;-77
2021/05/21 09:57:36;;;;;;;1.97;0.70;;;;;;;14.26;53.43;95703.34;5057774;28;20024;-77
2021/05/21 10:00:11;;;;;;;2.27;0.80;;;;;;;14.26;53.43;95706.00;5051827;28;20089;-77
2021/05/21 10:02:38;;;;;;;1.60;0.80;;;;;;;14.22;56.84;95719.78;5071169;28;20044;-76
2021/05/21 10:05:07;;;;;;;2.27;0.80;;;;;;;14.01;59.03;95718.03;5079810;28;20040;-77
2021/05/21 10:07:33;;;;;;;1.30;0.50;;;;;;;13.98;58.80;95711.28;5073176;28;20073;-78
2021/05/21 10:09:59;;;;;;;8.47;3.83;;;;;;;13.80;60.98;95721.56;5067950;28;20029;-77
2021/05/21 10:12:25;;;;;;;4.17;1.00;;;;;;;13.60;62.05;95716.91;5076464;28;20040;-76
2021/05/21 10:14:53;;;;;;;2.87;0.90;;;;;;;13.44;62.33;95718.00;5074885;28;20024;-77
2021/05/21 10:17:37;;;;;;;2.57;0.90;;;;;;;13.33;62.37;95721.16;5070708;28;20127;-76
2021/05/21 10:20:04;;;;;;;5.60;1.00;;;;;;;13.29;63.68;95725.19;5102695;28;20069;-77
2021/05/21 10:22:38;;;;;;;4.83;1.10;;;;;;;13.20;63.46;95713.06;5093024;28;20024;-76
2021/05/21 10:25:08;;;;;;;4.28;1.83;;;;;;;13.19;62.13;95714.09;5070299;28;20036;-77
2021/05/21 10:27:37;;;;;;;3.83;1.63;;;;;;;13.26;62.60;95714.19;5066508;28;20048;-78
2021/05/21 10:30:05;;;;;;;1.60;0.80;;;;;;;13.22;62.73;95719.00;5079587;28;20023;-77
2021/05/21 10:32:32;;;;;;;3.57;1.17;;;;;;;13.16;62.99;95723.19;5072625;28;20560;-77
2021/05/21 10:34:59;;;;;;;1.87;0.87;;;;;;;13.19;64.34;95728.09;5077446;28;20084;-77
2021/05/21 10:37:44;;;;;;;3.07;1.30;;;;;;;13.11;66.01;95727.38;5077219;28;20050;-77
2021/05/21 10:40:28;;;;;;;3.00;1.00;;;;;;;13.14;66.74;95727.00;5076334;28;20567;-77
2021/05/21 10:43:23;;;;;;;3.77;0.87;;;;;;;13.12;66.25;95726.41;5070999;28;20116;-75
2021/05/21 10:45:56;;;;;;;3.13;0.97;;;;;;;12.95;66.76;95729.28;5070236;28;20044;-75
2021/05/21 10:48:27;;;;;;;2.50;0.70;;;;;;;12.96;69.61;95725.63;5055409;28;20032;-75
2021/05/21 10:51:09;;;;;;;3.57;0.70;;;;;;;12.94;69.69;95727.63;5073559;28;20035;-76
2021/05/21 10:53:40;;;;;;;3.23;0.87;;;;;;;12.92;70.75;95729.63;5053111;28;20518;-75
2021/05/21 10:56:06;;;;;;;2.80;1.00;;;;;;;12.87;72.04;95725.91;5051868;28;20037;-75
2021/05/21 10:58:36;;;;;;;1.67;0.70;;;;;;;12.94;71.54;95717.09;5072153;28;20056;-76
2021/05/21 11:01:29;;;;;;;4.23;1.37;;;;;;;12.80;70.70;95709.19;5053770;28;20079;-76
2021/05/21 11:04:05;;;;;;;1.73;0.52;;;;;;;12.65;69.04;95685.50;5058989;28;20791;-75
2021/05/21 11:06:52;;;;;;;3.80;0.97;;;;;;;12.65;72.58;95688.13;5060463;28;20067;-76
2021/05/21 11:09:23;;;;;;;1.50;0.60;;;;;;;12.70;69.41;95693.66;5062689;28;20417;-75
2021/05/21 11:11:50;;;;;;;2.00;1.00;;;;;;;12.73;68.64;95690.66;5065426;28;20037;-76
2021/05/21 11:14:29;;;;;;;2.30;0.70;;;;;;;12.89;68.73;95690.41;5051340;28;20493;-76
2021/05/21 11:17:09;;;;;;;1.83;0.70;;;;;;;12.91;69.59;95685.78;5067467;28;20043;-75
2021/05/21 11:19:35;;;;;;;1.90;0.80;;;;;;;12.78;67.06;95682.19;5052233;28;20032;-75
2021/05/21 11:22:27;;;;;;;2.17;0.80;;;;;;;12.72;67.92;95675.81;5055912;28;20489;-75
2021/05/21 11:24:57;;;;;;;3.40;0.70;;;;;;;12.80;65.90;95675.69;5052993;28;20504;-75
2021/05/21 11:27:39;;;;;;;3.00;0.80;;;;;;;12.86;66.97;95687.34;5050753;28;20036;-75
2021/05/21 11:30:07;;;;;;;3.20;1.47;;;;;;;12.89;66.02;95686.97;5086819;28;20029;-75
2021/05/21 11:32:34;;;;;;;3.50;0.70;;;;;;;12.81;65.12;95692.34;5052980;28;20090;-74
2021/05/21 11:35:00;;;;;;;3.17;0.90;;;;;;;12.89;66.72;95702.81;5068813;28;20035;-74
2021/05/21 11:37:29;;;;;;;1.93;0.97;;;;;;;13.07;66.58;95705.00;5052420;28;20354;-75
2021/05/21 11:39:56;;;;;;;2.20;0.80;;;;;;;13.05;65.72;95691.19;5088585;28;20081;-75
2021/05/21 11:42:24;;;;;;;1.47;0.80;;;;;;;12.98;66.27;95691.94;5051117;28;20024;-75
2021/05/21 11:44:54;;;;;;;2.77;1.20;;;;;;;13.02;65.71;95697.66;5070277;28;20048;-75
2021/05/21 11:47:26;;;;;;;1.77;1.00;;;;;;;13.16;65.53;95680.13;5066657;28;20032;-75
2021/05/21 11:49:53;;;;;;;4.07;1.67;;;;;;;12.92;64.82;95671.56;5051460;28;20032;-74